createdAt,value
2019-04-25T00:01:03.349Z,15.30
2019-04-25T00:03:42.550Z,15.00
2019-04-25T00:06:13.252Z,15.00
2019-04-25T00:08:44.116Z,15.10
2019-04-25T00:11:14.366Z,15.20
2019-04-25T00:13:44.420Z,15.30
2019-04-25T00:16:16.136Z,15.20
2019-04-25T00:18:46.340Z,15.10
2019-04-25T00:21:21.941Z,15.10
2019-04-25T00:23:53.681Z,15.20
2019-04-25T00:26:35.205Z,15.10
2019-04-25T00:29:05.184Z,15.10
2019-04-25T00:31:35.267Z,15.10
2019-04-25T00:34:05.483Z,15.10
2019-04-25T00:36:35.489Z,15.00
2019-04-25T00:39:07.057Z,15.00
2019-04-25T00:41:38.655Z,15.00
2019-04-25T00:44:08.593Z,14.90
2019-04-25T00:46:38.609Z,14.80
2019-04-25T00:49:08.517Z,14.70
2019-04-25T00:51:38.534Z,14.70
2019-04-25T00:54:08.501Z,14.70
2019-04-25T00:56:39.905Z,14.50
2019-04-25T00:59:23.326Z,14.50
2019-04-25T01:01:54.869Z,14.60
2019-04-25T01:04:26.549Z,14.60
2019-04-25T01:06:56.533Z,14.60
2019-04-25T01:09:26.551Z,14.60
2019-04-25T01:11:56.528Z,14.70
2019-04-25T01:14:26.481Z,14.70
2019-04-25T01:16:56.541Z,14.70
2019-04-25T01:19:26.561Z,14.60
2019-04-25T01:21:56.481Z,14.50
2019-04-25T01:24:26.425Z,14.40
2019-04-25T01:26:56.437Z,14.50
2019-04-25T01:29:26.506Z,14.60
2019-04-25T01:31:56.589Z,14.60
2019-04-25T01:34:31.053Z,14.40
2019-04-25T01:37:04.183Z,14.30
2019-04-25T01:39:44.565Z,14.30
2019-04-25T01:42:31.073Z,14.40
2019-04-25T01:45:00.941Z,14.40
2019-04-25T01:47:31.161Z,14.40
2019-04-25T01:50:01.102Z,14.40
2019-04-25T01:52:31.158Z,14.30
2019-04-25T01:55:01.173Z,14.20
2019-04-25T01:57:31.304Z,14.30
2019-04-25T02:00:02.313Z,14.30
2019-04-25T02:02:33.671Z,14.30
2019-04-25T02:05:05.123Z,14.40
2019-04-25T02:07:35.216Z,14.20
2019-04-25T02:10:07.795Z,14.10
2019-04-25T02:12:43.589Z,14.00
2019-04-25T02:15:15.373Z,14.10
2019-04-25T02:17:45.382Z,14.10
2019-04-25T02:20:16.423Z,14.30
2019-04-25T02:22:46.401Z,14.40
2019-04-25T02:25:16.355Z,14.30
2019-04-25T02:27:46.265Z,14.20
2019-04-25T02:30:18.162Z,14.20
2019-04-25T02:32:48.254Z,14.20
2019-04-25T02:35:18.291Z,14.30
2019-04-25T02:37:49.653Z,14.00
2019-04-25T02:40:21.029Z,14.00
2019-04-25T02:42:51.121Z,14.10
2019-04-25T02:45:38.643Z,14.10
2019-04-25T02:48:24.127Z,14.10
2019-04-25T02:51:10.839Z,14.10
2019-04-25T02:53:48.473Z,13.90
2019-04-25T02:56:30.312Z,13.90
2019-04-25T02:58:50.240Z,13.90
2019-04-25T03:01:23.468Z,14.00
2019-04-25T03:03:54.318Z,14.00
2019-04-25T03:06:24.982Z,14.00
2019-04-25T03:08:55.413Z,14.00
2019-04-25T03:11:27.100Z,14.00
2019-04-25T03:13:57.768Z,14.00
2019-04-25T03:16:28.583Z,13.80
2019-04-25T03:19:13.989Z,13.80
2019-04-25T03:21:48.258Z,13.80
2019-04-25T03:24:18.349Z,13.80
2019-04-25T03:26:48.453Z,13.80
2019-04-25T03:29:18.497Z,13.60
2019-04-25T03:31:48.485Z,13.60
2019-04-25T03:34:20.650Z,13.60
2019-04-25T03:36:50.213Z,13.60
2019-04-25T03:39:20.074Z,13.60
2019-04-25T03:41:50.057Z,13.50
2019-04-25T03:44:20.061Z,13.40
2019-04-25T03:46:50.149Z,13.30
2019-04-25T03:49:20.129Z,13.40
2019-04-25T03:51:50.097Z,13.50
2019-04-25T03:54:20.081Z,13.50
2019-04-25T03:56:54.373Z,13.50
2019-04-25T03:59:21.745Z,13.40
2019-04-25T04:01:53.607Z,13.50
2019-04-25T04:04:23.820Z,13.50
2019-04-25T04:06:53.942Z,13.50
2019-04-25T04:09:24.191Z,13.50
2019-04-25T04:11:54.333Z,13.50
2019-04-25T04:14:24.425Z,13.40
2019-04-25T04:17:04.023Z,13.40
2019-04-25T04:19:35.315Z,13.30
2019-04-25T04:22:09.847Z,13.40
2019-04-25T04:24:41.400Z,13.40
2019-04-25T04:27:14.118Z,13.40
2019-04-25T04:29:44.420Z,13.40
2019-04-25T04:32:15.965Z,13.40
2019-04-25T04:34:46.297Z,13.20
2019-04-25T04:37:16.337Z,13.10
2019-04-25T04:39:46.478Z,13.00
2019-04-25T04:42:16.413Z,13.00
2019-04-25T04:44:46.277Z,12.90
2019-04-25T04:47:16.672Z,13.00
2019-04-25T04:49:46.764Z,13.20
2019-04-25T04:52:17.009Z,13.30
2019-04-25T04:54:46.944Z,13.40
2019-04-25T04:57:27.833Z,13.50
2019-04-25T04:59:48.582Z,13.40
2019-04-25T05:02:33.331Z,13.50
2019-04-25T05:05:21.186Z,13.60
2019-04-25T05:07:53.930Z,13.70
2019-04-25T05:10:25.024Z,13.70
2019-04-25T05:12:54.865Z,13.80
2019-04-25T05:15:24.994Z,13.80
2019-04-25T05:17:55.038Z,13.70
2019-04-25T05:20:25.081Z,13.70
2019-04-25T05:22:55.261Z,13.80
2019-04-25T05:25:26.205Z,13.90
2019-04-25T05:28:02.723Z,14.00
2019-04-25T05:30:33.649Z,14.10
2019-04-25T05:33:04.018Z,14.20
2019-04-25T05:35:34.037Z,14.20
2019-04-25T05:38:04.137Z,14.20
2019-04-25T05:40:35.793Z,14.30
2019-04-25T05:43:10.352Z,14.30
2019-04-25T05:45:40.306Z,14.30
2019-04-25T05:48:10.217Z,14.40
2019-04-25T05:50:40.241Z,14.30
2019-04-25T05:53:10.229Z,14.30
2019-04-25T05:55:40.249Z,14.40
2019-04-25T05:58:10.265Z,14.30
2019-04-25T06:00:40.613Z,14.30
2019-04-25T06:03:10.624Z,14.40
2019-04-25T06:05:40.634Z,14.60
2019-04-25T06:08:10.607Z,14.60
2019-04-25T06:10:45.039Z,14.60
2019-04-25T06:13:15.526Z,14.80
2019-04-25T06:15:47.115Z,14.80
2019-04-25T06:18:19.764Z,14.70
2019-04-25T06:20:50.862Z,14.80
2019-04-25T06:23:31.086Z,14.80
2019-04-25T06:26:16.080Z,14.80
2019-04-25T06:28:34.562Z,15.10
2019-04-25T06:31:10.325Z,15.30
2019-04-25T06:33:39.126Z,15.50
2019-04-25T06:36:09.250Z,15.70
2019-04-25T06:38:40.196Z,15.80
2019-04-25T06:41:10.271Z,15.90
2019-04-25T06:43:42.061Z,16.10
2019-04-25T06:46:25.754Z,16.10
2019-04-25T06:49:00.393Z,16.30
2019-04-25T06:51:34.730Z,16.50
2019-04-25T06:54:04.737Z,16.70
2019-04-25T06:56:34.654Z,16.80
2019-04-25T06:59:04.697Z,16.90
2019-04-25T07:01:34.726Z,17.00
2019-04-25T07:04:04.790Z,17.00
2019-04-25T07:06:34.818Z,17.10
2019-04-25T07:09:09.725Z,17.30
2019-04-25T07:11:39.950Z,17.30
2019-04-25T07:14:10.098Z,17.30
2019-04-25T07:16:43.218Z,17.40
2019-04-25T07:19:14.267Z,17.50
2019-04-25T07:21:44.417Z,17.50
2019-04-25T07:24:17.589Z,17.60
2019-04-25T07:27:06.856Z,17.70
2019-04-25T07:29:38.445Z,17.80
2019-04-25T07:32:24.236Z,17.80
2019-04-25T07:34:55.120Z,17.80
2019-04-25T07:37:26.082Z,17.90
2019-04-25T07:39:56.217Z,17.90
2019-04-25T07:42:26.322Z,18.00
2019-04-25T07:44:56.383Z,18.10
2019-04-25T07:47:26.955Z,18.10
2019-04-25T07:49:57.082Z,18.10
2019-04-25T07:52:27.138Z,18.20
2019-04-25T07:54:57.180Z,18.30
2019-04-25T07:57:27.926Z,18.40
2019-04-25T07:59:58.144Z,18.40
2019-04-25T08:02:28.518Z,18.40
2019-04-25T08:05:00.547Z,18.40
2019-04-25T08:07:31.566Z,18.50
2019-04-25T08:10:01.661Z,18.50
2019-04-25T08:12:32.858Z,18.60
2019-04-25T08:15:09.008Z,18.60
2019-04-25T08:17:48.021Z,18.40
2019-04-25T08:20:18.401Z,18.30
2019-04-25T08:22:55.898Z,18.40
2019-04-25T08:25:20.744Z,18.50
2019-04-25T08:27:50.801Z,18.60
2019-04-25T08:30:20.829Z,18.80
2019-04-25T08:32:50.879Z,18.90
2019-04-25T08:35:20.889Z,19.00
2019-04-25T08:37:50.905Z,18.90
2019-04-25T08:40:21.390Z,18.70
2019-04-25T08:42:51.418Z,18.60
2019-04-25T08:45:24.492Z,18.60
2019-04-25T08:47:54.517Z,18.60
2019-04-25T08:50:31.527Z,18.80
2019-04-25T08:53:00.637Z,18.80
2019-04-25T08:55:50.094Z,18.90
2019-04-25T08:58:31.271Z,18.90
2019-04-25T09:01:15.892Z,18.90
2019-04-25T09:03:47.514Z,18.90
2019-04-25T09:06:17.796Z,18.90
2019-04-25T09:08:47.843Z,19.00
2019-04-25T09:11:18.257Z,19.00
2019-04-25T09:13:48.275Z,19.00
2019-04-25T09:16:18.100Z,19.00
2019-04-25T09:18:48.049Z,19.00
2019-04-25T09:21:17.963Z,19.00
2019-04-25T09:23:47.919Z,19.00
2019-04-25T09:26:17.918Z,19.00
2019-04-25T09:28:47.935Z,19.00
2019-04-25T09:31:18.960Z,19.00
2019-04-25T09:33:50.577Z,19.10
2019-04-25T09:36:20.577Z,19.20
2019-04-25T09:38:53.796Z,19.20
2019-04-25T09:41:23.894Z,19.20
2019-04-25T09:43:55.621Z,19.30
2019-04-25T09:46:29.901Z,19.30
2019-04-25T09:49:07.501Z,19.30
2019-04-25T09:51:39.720Z,19.30
2019-04-25T09:54:23.808Z,19.40
2019-04-25T09:56:55.557Z,19.40
2019-04-25T09:59:28.099Z,19.50
2019-04-25T10:01:57.775Z,19.50
2019-04-25T10:04:27.750Z,19.50
2019-04-25T10:06:57.766Z,19.50
2019-04-25T10:09:27.875Z,19.40
2019-04-25T10:11:57.889Z,19.40
2019-04-25T10:14:39.518Z,19.50
2019-04-25T10:17:09.714Z,19.50
2019-04-25T10:19:39.701Z,19.50
2019-04-25T10:22:09.721Z,19.50
2019-04-25T10:24:39.753Z,19.60
2019-04-25T10:27:09.801Z,19.60
2019-04-25T10:29:47.471Z,19.60
2019-04-25T10:32:13.014Z,19.70
2019-04-25T10:34:45.872Z,19.70
2019-04-25T10:37:16.383Z,19.70
2019-04-25T10:39:46.462Z,19.80
2019-04-25T10:42:16.502Z,19.80
2019-04-25T10:44:47.122Z,19.80
2019-04-25T10:47:18.241Z,19.80
2019-04-25T10:49:48.283Z,19.90
2019-04-25T10:52:18.395Z,20.00
2019-04-25T10:54:48.429Z,20.00
2019-04-25T10:57:18.597Z,20.10
2019-04-25T11:00:00.765Z,20.10
2019-04-25T11:02:20.778Z,20.20
2019-04-25T11:04:55.068Z,20.10
2019-04-25T11:07:25.176Z,20.20
2019-04-25T11:09:55.205Z,20.20
2019-04-25T11:12:25.269Z,20.20
2019-04-25T11:14:56.249Z,20.20
2019-04-25T11:17:26.341Z,20.20
2019-04-25T11:19:57.534Z,20.30
2019-04-25T11:22:27.502Z,20.30
2019-04-25T11:24:57.503Z,20.30
2019-04-25T11:27:27.509Z,20.30
2019-04-25T11:30:08.397Z,20.30
2019-04-25T11:32:29.188Z,20.30
2019-04-25T11:34:59.704Z,20.30
2019-04-25T11:37:34.118Z,20.30
2019-04-25T11:40:05.215Z,20.30
2019-04-25T11:42:35.153Z,20.20
2019-04-25T11:45:07.250Z,20.20
2019-04-25T11:47:37.233Z,20.20
2019-04-25T11:50:09.041Z,20.20
2019-04-25T11:52:39.021Z,20.20
2019-04-25T11:55:09.417Z,20.20
2019-04-25T11:57:39.431Z,20.20
2019-04-25T12:00:21.509Z,20.10
2019-04-25T12:02:43.893Z,20.10
2019-04-25T12:05:15.152Z,20.10
2019-04-25T12:07:45.665Z,20.10
2019-04-25T12:10:16.677Z,20.00
2019-04-25T12:12:47.365Z,20.00
2019-04-25T12:15:17.682Z,19.90
2019-04-25T12:17:47.724Z,19.90
2019-04-25T12:20:17.936Z,19.80
2019-04-25T12:22:48.296Z,19.80
2019-04-25T12:25:18.313Z,19.80
2019-04-25T12:27:49.951Z,19.80
2019-04-25T12:30:20.074Z,19.80
2019-04-25T12:32:50.003Z,19.70
2019-04-25T12:35:20.170Z,19.70
2019-04-25T12:37:50.197Z,19.70
2019-04-25T12:40:20.253Z,19.70
2019-04-25T12:42:50.337Z,19.70
2019-04-25T12:45:22.001Z,19.70
2019-04-25T12:47:58.866Z,19.70
2019-04-25T12:50:28.222Z,19.70
2019-04-25T12:52:58.177Z,19.70
2019-04-25T12:55:28.217Z,19.70
2019-04-25T12:57:58.218Z,19.60
2019-04-25T13:00:29.785Z,19.70
2019-04-25T13:02:59.761Z,19.70
2019-04-25T13:05:29.778Z,19.70
2019-04-25T13:08:00.871Z,19.70
2019-04-25T13:10:33.296Z,19.70
2019-04-25T13:13:03.948Z,19.70
2019-04-25T13:15:34.475Z,19.60
2019-04-25T13:18:04.776Z,19.50
2019-04-25T13:20:34.750Z,19.50
2019-04-25T13:23:05.743Z,19.50
2019-04-25T13:25:35.981Z,19.50
2019-04-25T13:28:23.902Z,19.40
2019-04-25T13:31:04.139Z,19.40
2019-04-25T13:33:37.735Z,19.30
2019-04-25T13:36:09.460Z,19.30
2019-04-25T13:38:39.401Z,19.30
2019-04-25T13:41:09.415Z,19.20
2019-04-25T13:43:39.482Z,19.10
2019-04-25T13:46:09.461Z,19.20
2019-04-25T13:48:39.490Z,19.20
2019-04-25T13:51:09.461Z,19.10
2019-04-25T13:53:39.477Z,19.10
2019-04-25T13:56:09.722Z,19.10
2019-04-25T13:58:39.666Z,19.10
2019-04-25T14:01:13.296Z,19.00
2019-04-25T14:03:44.408Z,19.00
2019-04-25T14:06:18.866Z,18.90
2019-04-25T14:08:48.877Z,18.90
2019-04-25T14:11:19.097Z,18.80
2019-04-25T14:13:49.169Z,18.70
2019-04-25T14:16:21.191Z,18.70
2019-04-25T14:18:55.734Z,18.60
2019-04-25T14:21:26.143Z,18.50
2019-04-25T14:23:57.117Z,18.50
2019-04-25T14:26:27.460Z,18.40
2019-04-25T14:28:57.442Z,18.40
2019-04-25T14:31:39.350Z,18.40
2019-04-25T14:33:59.823Z,18.30
2019-04-25T14:36:30.229Z,18.30
2019-04-25T14:39:00.335Z,18.30
2019-04-25T14:41:32.357Z,18.30
2019-04-25T14:44:02.405Z,18.30
2019-04-25T14:46:32.419Z,18.30
2019-04-25T14:49:02.601Z,18.20
2019-04-25T14:51:32.834Z,18.10
2019-04-25T14:54:04.425Z,18.00
2019-04-25T14:56:35.947Z,18.00
2019-04-25T14:59:05.962Z,17.90
2019-04-25T15:01:44.450Z,17.90
2019-04-25T15:04:07.589Z,17.90
2019-04-25T15:06:37.530Z,17.90
2019-04-25T15:09:07.849Z,17.90
2019-04-25T15:11:38.123Z,17.80
2019-04-25T15:14:08.102Z,17.70
2019-04-25T15:16:38.201Z,17.60
2019-04-25T15:19:08.173Z,17.50
2019-04-25T15:21:38.187Z,17.50
2019-04-25T15:24:08.214Z,17.50
2019-04-25T15:26:40.233Z,17.50
2019-04-25T15:29:09.932Z,17.50
2019-04-25T15:31:40.105Z,17.40
2019-04-25T15:34:10.132Z,17.30
2019-04-25T15:36:41.813Z,17.20
2019-04-25T15:39:29.146Z,17.10
2019-04-25T15:42:00.738Z,17.10
2019-04-25T15:44:35.309Z,17.00
2019-04-25T15:47:07.966Z,16.90
2019-04-25T15:49:37.878Z,16.90
2019-04-25T15:52:08.570Z,16.90
2019-04-25T15:54:38.626Z,16.90
2019-04-25T15:57:09.872Z,16.80
2019-04-25T15:59:39.786Z,16.70
2019-04-25T16:02:11.363Z,16.60
2019-04-25T16:04:41.509Z,16.60
2019-04-25T16:07:12.659Z,16.50
2019-04-25T16:09:42.775Z,16.40
2019-04-25T16:12:13.418Z,16.30
2019-04-25T16:14:43.500Z,16.30
2019-04-25T16:17:13.501Z,16.10
2019-04-25T16:19:43.589Z,16.10
2019-04-25T16:22:13.566Z,16.00
2019-04-25T16:24:43.561Z,16.00
2019-04-25T16:27:13.825Z,15.90
2019-04-25T16:29:43.854Z,15.90
2019-04-25T16:32:20.814Z,15.90
2019-04-25T16:34:46.333Z,15.90
2019-04-25T16:37:16.073Z,15.80
2019-04-25T16:39:46.097Z,15.80
2019-04-25T16:42:17.210Z,15.70
2019-04-25T16:44:47.297Z,15.80
2019-04-25T16:47:18.905Z,15.90
2019-04-25T16:49:48.829Z,15.70
2019-04-25T16:52:19.978Z,15.50
2019-04-25T16:54:49.989Z,15.40
2019-04-25T16:57:19.932Z,15.40
2019-04-25T16:59:49.914Z,15.40
2019-04-25T17:02:32.198Z,15.40
2019-04-25T17:04:52.954Z,15.30
2019-04-25T17:07:22.977Z,15.30
2019-04-25T17:09:52.943Z,15.30
2019-04-25T17:12:23.345Z,15.30
2019-04-25T17:15:07.280Z,15.30
2019-04-25T17:17:42.082Z,15.40
2019-04-25T17:20:19.583Z,15.50
2019-04-25T17:22:49.779Z,15.40
2019-04-25T17:25:19.965Z,15.30
2019-04-25T17:27:50.049Z,15.30
2019-04-25T17:30:20.957Z,15.30
2019-04-25T17:32:53.917Z,15.40
2019-04-25T17:35:25.796Z,15.30
2019-04-25T17:38:03.598Z,15.30
2019-04-25T17:40:33.893Z,15.30
2019-04-25T17:43:10.796Z,15.30
2019-04-25T17:45:36.914Z,15.40
2019-04-25T17:48:07.606Z,15.50
2019-04-25T17:50:37.556Z,15.60
2019-04-25T17:53:07.719Z,15.80
2019-04-25T17:55:37.717Z,15.90
2019-04-25T17:58:08.770Z,16.00
2019-04-25T18:00:40.512Z,16.10
2019-04-25T18:03:11.888Z,16.10
2019-04-25T18:05:41.946Z,16.10
2019-04-25T18:08:12.018Z,16.20
2019-04-25T18:10:42.095Z,16.20
2019-04-25T18:13:12.093Z,16.20
2019-04-25T18:15:59.743Z,16.20
2019-04-25T18:18:47.489Z,16.10
2019-04-25T18:21:17.553Z,16.20
2019-04-25T18:23:52.230Z,16.20
2019-04-25T18:26:23.765Z,16.20
2019-04-25T18:28:55.409Z,16.20
2019-04-25T18:31:25.310Z,16.10
2019-04-25T18:33:57.918Z,16.20
2019-04-25T18:36:36.174Z,16.20
2019-04-25T18:39:14.806Z,16.00
2019-04-25T18:41:48.017Z,15.90
2019-04-25T18:44:18.882Z,15.90
2019-04-25T18:46:48.952Z,16.00
2019-04-25T18:49:19.094Z,15.90
2019-04-25T18:51:57.608Z,15.90
2019-04-25T18:54:25.281Z,15.90
2019-04-25T18:56:56.754Z,15.80
2019-04-25T18:59:46.429Z,15.90
2019-04-25T19:02:28.293Z,15.90
2019-04-25T19:05:00.150Z,15.90
2019-04-25T19:07:30.465Z,16.00
2019-04-25T19:10:00.414Z,15.90
2019-04-25T19:12:30.468Z,15.90
2019-04-25T19:15:07.323Z,15.90
2019-04-25T19:17:37.704Z,15.90
2019-04-25T19:20:07.953Z,15.90
2019-04-25T19:22:38.141Z,15.80
2019-04-25T19:25:08.870Z,15.80
2019-04-25T19:27:39.716Z,15.80
2019-04-25T19:30:13.547Z,15.80
2019-04-25T19:32:43.657Z,15.70
2019-04-25T19:35:21.154Z,15.70
2019-04-25T19:37:51.406Z,15.70
2019-04-25T19:40:25.627Z,15.70
2019-04-25T19:43:00.021Z,15.70
2019-04-25T19:45:30.092Z,15.70
2019-04-25T19:48:00.332Z,15.70
2019-04-25T19:50:30.583Z,15.70
2019-04-25T19:53:00.672Z,15.60
2019-04-25T19:55:30.786Z,15.60
2019-04-25T19:58:01.693Z,15.30
2019-04-25T20:00:31.717Z,15.30
2019-04-25T20:03:09.143Z,15.30
2019-04-25T20:05:44.237Z,15.40
2019-04-25T20:08:32.146Z,15.50
2019-04-25T20:11:03.827Z,15.60
2019-04-25T20:13:33.809Z,15.40
2019-04-25T20:16:03.894Z,15.30
2019-04-25T20:18:33.880Z,15.30
2019-04-25T20:21:04.036Z,15.30
2019-04-25T20:23:34.121Z,15.20
2019-04-25T20:26:04.110Z,15.20
2019-04-25T20:28:34.206Z,15.20
2019-04-25T20:31:05.158Z,15.30
2019-04-25T20:33:35.166Z,15.40
2019-04-25T20:36:17.009Z,15.50
2019-04-25T20:38:36.915Z,15.60
2019-04-25T20:41:07.100Z,15.50
2019-04-25T20:43:37.123Z,15.60
2019-04-25T20:46:07.102Z,15.60
2019-04-25T20:48:37.142Z,15.60
2019-04-25T20:51:07.157Z,15.50
2019-04-25T20:53:37.238Z,15.50
2019-04-25T20:56:07.433Z,15.50
2019-04-25T20:58:37.348Z,15.50
2019-04-25T21:01:07.421Z,15.60
2019-04-25T21:03:37.445Z,15.50
2019-04-25T21:06:11.458Z,15.50
2019-04-25T21:08:41.540Z,15.50
2019-04-25T21:11:11.536Z,15.50
2019-04-25T21:13:43.154Z,15.60
2019-04-25T21:16:20.829Z,15.60
2019-04-25T21:18:53.172Z,15.50
2019-04-25T21:21:23.199Z,15.30
2019-04-25T21:23:53.109Z,15.30
2019-04-25T21:26:23.060Z,15.30
2019-04-25T21:28:53.045Z,15.40
2019-04-25T21:31:23.078Z,15.40
2019-04-25T21:33:53.143Z,15.50
2019-04-25T21:36:24.827Z,15.50
2019-04-25T21:38:55.412Z,15.50
2019-04-25T21:41:39.798Z,15.50
2019-04-25T21:44:10.273Z,15.40
2019-04-25T21:46:40.404Z,15.50
2019-04-25T21:49:10.634Z,15.40
2019-04-25T21:51:40.699Z,15.50
2019-04-25T21:54:10.789Z,15.40
2019-04-25T21:56:41.069Z,15.50
2019-04-25T21:59:11.370Z,15.50
2019-04-25T22:01:44.886Z,15.60
2019-04-25T22:04:16.600Z,15.50
2019-04-25T22:06:47.063Z,15.60
2019-04-25T22:09:19.724Z,15.50
2019-04-25T22:11:50.219Z,15.60
2019-04-25T22:14:20.753Z,15.60
2019-04-25T22:16:51.225Z,15.60
2019-04-25T22:19:21.650Z,15.40
2019-04-25T22:21:52.021Z,15.40
2019-04-25T22:24:22.245Z,15.40
2019-04-25T22:26:54.249Z,15.30
2019-04-25T22:29:24.205Z,15.30
2019-04-25T22:31:56.915Z,15.30
2019-04-25T22:34:28.899Z,15.40
2019-04-25T22:36:59.842Z,15.40
2019-04-25T22:39:29.937Z,15.40
2019-04-25T22:42:00.821Z,15.40
2019-04-25T22:44:31.949Z,15.40
2019-04-25T22:47:02.377Z,15.40
2019-04-25T22:49:32.333Z,15.40
2019-04-25T22:52:03.201Z,15.40
2019-04-25T22:54:34.309Z,15.30
2019-04-25T22:57:04.475Z,15.40
2019-04-25T22:59:34.821Z,15.40
2019-04-25T23:02:12.505Z,15.40
2019-04-25T23:05:04.757Z,15.40
2019-04-25T23:07:25.040Z,15.40
2019-04-25T23:09:55.469Z,15.50
2019-04-25T23:12:25.700Z,15.40
2019-04-25T23:14:55.756Z,15.50
2019-04-25T23:17:25.646Z,15.40
2019-04-25T23:19:57.871Z,15.30
2019-04-25T23:22:27.794Z,15.10
2019-04-25T23:25:12.056Z,15.20
2019-04-25T23:27:49.364Z,15.20
2019-04-25T23:30:21.234Z,15.30
2019-04-25T23:32:51.147Z,15.20
2019-04-25T23:35:30.211Z,15.00
2019-04-25T23:37:52.973Z,14.90
2019-04-25T23:40:22.962Z,14.90
2019-04-25T23:42:52.914Z,14.80
2019-04-25T23:45:22.974Z,14.90
2019-04-25T23:47:52.922Z,15.00
2019-04-25T23:50:23.185Z,14.90
2019-04-25T23:52:53.202Z,15.00
2019-04-25T23:55:23.397Z,14.90
2019-04-25T23:57:53.521Z,14.90
